FIN23F EFHK-EGLL
Flight info
| Callsign | FIN23F |
|---|---|
| Flight time | N/A |
| Altitude | 40000 |
| Route | ADIVO Y365 POGOK DCT TIPIX DCT UPGAS DCT TIPAN DCT WECOW DCT BINBO DCT AKOKO N866 BUKUT P7 BARMI |
| Aircraft | A359/H-SDE2E3GHIJ3J4J5LM1ORWXY/LB1D1 |
Departure
| Time | 2026-05-06 11:22 |
|---|---|
| Airport | Helsinki Vantaa Airport (EFHK) |
Arrival
| Time | N/A |
|---|---|
| Airport | London Heathrow Airport (EGLL) |
| Time | Latitude | Longitude | Altitude | Speed | Heading |
|---|---|---|---|---|---|
| 2026-05-06 11:04 | 60.31327 | 24.95751 | 164 ft | 0 kts | 320° |
| 2026-05-06 11:10 | 60.31323 | 24.95757 | 170 ft | 4 kts | 308° |
| 2026-05-06 11:10 | 60.31313 | 24.95782 | 170 ft | 4 kts | 317° |
| 2026-05-06 11:10 | 60.31294 | 24.95814 | 170 ft | 4 kts | 307° |
| 2026-05-06 11:11 | 60.31283 | 24.95848 | 170 ft | 4 kts | 277° |
| 2026-05-06 11:11 | 60.31285 | 24.95876 | 170 ft | 4 kts | 230° |
| 2026-05-06 11:11 | 60.31303 | 24.95915 | 170 ft | 4 kts | 225° |
| 2026-05-06 11:11 | 60.31309 | 24.95927 | 170 ft | 4 kts | 227° |
| 2026-05-06 11:14 | 60.31294 | 24.95894 | 170 ft | 10 kts | 227° |
| 2026-05-06 11:15 | 60.31239 | 24.95775 | 170 ft | 13 kts | 227° |
| 2026-05-06 11:15 | 60.31175 | 24.95632 | 169 ft | 12 kts | 231° |
| 2026-05-06 11:15 | 60.31183 | 24.95491 | 169 ft | 11 kts | 308° |
| 2026-05-06 11:15 | 60.31245 | 24.95367 | 169 ft | 14 kts | 317° |
| 2026-05-06 11:16 | 60.31313 | 24.95240 | 169 ft | 12 kts | 317° |
| 2026-05-06 11:16 | 60.31376 | 24.95123 | 169 ft | 13 kts | 317° |
| 2026-05-06 11:16 | 60.31447 | 24.94985 | 169 ft | 13 kts | 326° |
| 2026-05-06 11:16 | 60.31485 | 24.94996 | 169 ft | 9 kts | 35° |
| 2026-05-06 11:17 | 60.31536 | 24.95105 | 169 ft | 13 kts | 49° |
| 2026-05-06 11:17 | 60.31601 | 24.95250 | 169 ft | 15 kts | 47° |
| 2026-05-06 11:17 | 60.31681 | 24.95426 | 170 ft | 19 kts | 47° |
| 2026-05-06 11:17 | 60.31776 | 24.95633 | 170 ft | 21 kts | 47° |
| 2026-05-06 11:18 | 60.31880 | 24.95863 | 170 ft | 16 kts | 47° |
| 2026-05-06 11:18 | 60.31942 | 24.95960 | 170 ft | 11 kts | 2° |
| 2026-05-06 11:18 | 60.32010 | 24.95872 | 170 ft | 13 kts | 317° |
| 2026-05-06 11:18 | 60.32084 | 24.95737 | 169 ft | 16 kts | 318° |
| 2026-05-06 11:19 | 60.32172 | 24.95576 | 170 ft | 18 kts | 317° |
| 2026-05-06 11:19 | 60.32265 | 24.95402 | 171 ft | 19 kts | 317° |
| 2026-05-06 11:19 | 60.32372 | 24.95254 | 173 ft | 19 kts | 341° |
| 2026-05-06 11:19 | 60.32498 | 24.95173 | 177 ft | 19 kts | 342° |
| 2026-05-06 11:20 | 60.32623 | 24.95092 | 181 ft | 19 kts | 342° |
| 2026-05-06 11:20 | 60.32745 | 24.95016 | 191 ft | 18 kts | 342° |
| 2026-05-06 11:20 | 60.32867 | 24.94934 | 197 ft | 18 kts | 339° |
| 2026-05-06 11:20 | 60.32965 | 24.94788 | 200 ft | 18 kts | 318° |
| 2026-05-06 11:21 | 60.33057 | 24.94620 | 208 ft | 18 kts | 317° |
| 2026-05-06 11:21 | 60.33122 | 24.94429 | 204 ft | 15 kts | 260° |
| 2026-05-06 11:21 | 60.33053 | 24.94248 | 204 ft | 18 kts | 227° |
| 2026-05-06 11:21 | 60.32884 | 24.93877 | 204 ft | 70 kts | 227° |
| 2026-05-06 11:22 | 60.32386 | 24.92783 | 176 ft | 139 kts | 227° |
| 2026-05-06 11:22 | 60.31895 | 24.91743 | 390 ft | 156 kts | 229° |
| 2026-05-06 11:22 | 60.31194 | 24.90287 | 1494 ft | 142 kts | 229° |
| 2026-05-06 11:22 | 60.30785 | 24.88327 | 1909 ft | 168 kts | 270° |
| 2026-05-06 11:23 | 60.30962 | 24.85811 | 2419 ft | 196 kts | 281° |
| 2026-05-06 11:23 | 60.31274 | 24.82906 | 2913 ft | 224 kts | 282° |
| 2026-05-06 11:23 | 60.31584 | 24.79738 | 3729 ft | 235 kts | 281° |
| 2026-05-06 11:23 | 60.31779 | 24.76411 | 4617 ft | 243 kts | 272° |
| 2026-05-06 11:24 | 60.31744 | 24.72975 | 5554 ft | 248 kts | 268° |
| 2026-05-06 11:24 | 60.31648 | 24.69467 | 6587 ft | 253 kts | 268° |
| 2026-05-06 11:24 | 60.31553 | 24.65898 | 7642 ft | 257 kts | 268° |
| 2026-05-06 11:24 | 60.31468 | 24.62283 | 8741 ft | 260 kts | 268° |
| 2026-05-06 11:25 | 60.31382 | 24.58613 | 9784 ft | 264 kts | 268° |
| 2026-05-06 11:25 | 60.31297 | 24.54846 | 10583 ft | 277 kts | 268° |
| 2026-05-06 11:25 | 60.31196 | 24.50809 | 11033 ft | 300 kts | 268° |
| 2026-05-06 11:25 | 60.31085 | 24.46528 | 11542 ft | 318 kts | 268° |
| 2026-05-06 11:26 | 60.30967 | 24.42039 | 12505 ft | 320 kts | 268° |
| 2026-05-06 11:26 | 60.30847 | 24.37585 | 13712 ft | 317 kts | 268° |
| 2026-05-06 11:26 | 60.30729 | 24.33151 | 14730 ft | 316 kts | 267° |
| 2026-05-06 11:26 | 60.30611 | 24.28711 | 15619 ft | 319 kts | 267° |
| 2026-05-06 11:27 | 60.30490 | 24.24228 | 16532 ft | 322 kts | 267° |
| 2026-05-06 11:27 | 60.30366 | 24.19701 | 17490 ft | 323 kts | 266° |
| 2026-05-06 11:27 | 60.30241 | 24.15210 | 18419 ft | 326 kts | 266° |
| 2026-05-06 11:27 | 60.30112 | 24.10630 | 19247 ft | 328 kts | 266° |
| 2026-05-06 11:28 | 60.29981 | 24.06018 | 20076 ft | 330 kts | 266° |
| 2026-05-06 11:28 | 60.29845 | 24.01379 | 20884 ft | 333 kts | 265° |
| 2026-05-06 11:28 | 60.29587 | 23.96732 | 21692 ft | 335 kts | 261° |
| 2026-05-06 11:28 | 60.29174 | 23.92092 | 22501 ft | 337 kts | 259° |
| 2026-05-06 11:29 | 60.28687 | 23.87445 | 23319 ft | 339 kts | 258° |
| 2026-05-06 11:29 | 60.28163 | 23.82776 | 24036 ft | 342 kts | 257° |
| 2026-05-06 11:29 | 60.27629 | 23.78097 | 24705 ft | 344 kts | 257° |
| 2026-05-06 11:29 | 60.27095 | 23.73397 | 25390 ft | 345 kts | 257° |
| 2026-05-06 11:30 | 60.26563 | 23.68663 | 26082 ft | 346 kts | 257° |
| 2026-05-06 11:30 | 60.26041 | 23.63976 | 26743 ft | 348 kts | 257° |
| 2026-05-06 11:30 | 60.25510 | 23.59194 | 27400 ft | 350 kts | 257° |
| 2026-05-06 11:30 | 60.24980 | 23.54405 | 28079 ft | 352 kts | 257° |
| 2026-05-06 11:31 | 60.24446 | 23.49591 | 28724 ft | 354 kts | 257° |
| 2026-05-06 11:31 | 60.23906 | 23.44737 | 29363 ft | 356 kts | 257° |
| 2026-05-06 11:31 | 60.23361 | 23.39866 | 29975 ft | 358 kts | 256° |
| 2026-05-06 11:31 | 60.22812 | 23.34970 | 30441 ft | 361 kts | 256° |
| 2026-05-06 11:32 | 60.22253 | 23.30018 | 30808 ft | 366 kts | 256° |
| 2026-05-06 11:32 | 60.21684 | 23.24988 | 31190 ft | 370 kts | 256° |
| 2026-05-06 11:32 | 60.21109 | 23.19915 | 31566 ft | 374 kts | 256° |
| 2026-05-06 11:32 | 60.20526 | 23.14791 | 31926 ft | 378 kts | 256° |
| 2026-05-06 11:33 | 60.19943 | 23.09684 | 32272 ft | 381 kts | 256° |
| 2026-05-06 11:33 | 60.19345 | 23.04475 | 32623 ft | 384 kts | 256° |
| 2026-05-06 11:33 | 60.18740 | 22.99226 | 32962 ft | 388 kts | 256° |
| 2026-05-06 11:33 | 60.18126 | 22.93921 | 33330 ft | 390 kts | 256° |
| 2026-05-06 11:34 | 60.17512 | 22.88630 | 33831 ft | 389 kts | 256° |
| 2026-05-06 11:34 | 60.16894 | 22.83334 | 34249 ft | 389 kts | 256° |
| 2026-05-06 11:34 | 60.16274 | 22.78030 | 34517 ft | 392 kts | 256° |
| 2026-05-06 11:34 | 60.15646 | 22.72680 | 34762 ft | 395 kts | 256° |
| 2026-05-06 11:35 | 60.15012 | 22.67303 | 35020 ft | 397 kts | 256° |
| 2026-05-06 11:35 | 60.14369 | 22.61871 | 35287 ft | 400 kts | 256° |
| 2026-05-06 11:35 | 60.13724 | 22.56419 | 35550 ft | 402 kts | 256° |
| 2026-05-06 11:35 | 60.13071 | 22.50934 | 35793 ft | 405 kts | 256° |
| 2026-05-06 11:36 | 60.12410 | 22.45427 | 36052 ft | 408 kts | 256° |
| 2026-05-06 11:36 | 60.11751 | 22.39959 | 36302 ft | 410 kts | 256° |
| 2026-05-06 11:36 | 60.11076 | 22.34390 | 36540 ft | 412 kts | 256° |
| 2026-05-06 11:36 | 60.10395 | 22.28785 | 36777 ft | 415 kts | 256° |
| 2026-05-06 11:37 | 60.09709 | 22.23149 | 37031 ft | 417 kts | 256° |
| 2026-05-06 11:37 | 60.09016 | 22.17487 | 37255 ft | 419 kts | 256° |
| 2026-05-06 11:37 | 60.08318 | 22.11797 | 37502 ft | 421 kts | 256° |
| 2026-05-06 11:37 | 60.07615 | 22.06085 | 37756 ft | 423 kts | 256° |
| 2026-05-06 11:38 | 60.06905 | 22.00341 | 37969 ft | 426 kts | 255° |
| 2026-05-06 11:38 | 60.06189 | 21.94574 | 38197 ft | 428 kts | 255° |
| 2026-05-06 11:38 | 60.05467 | 21.88779 | 38404 ft | 430 kts | 255° |
| 2026-05-06 11:38 | 60.04739 | 21.82960 | 38650 ft | 432 kts | 255° |
| 2026-05-06 11:39 | 60.04006 | 21.77126 | 38829 ft | 433 kts | 255° |
| 2026-05-06 11:39 | 60.03274 | 21.71324 | 39025 ft | 434 kts | 255° |
| 2026-05-06 11:39 | 60.02532 | 21.65459 | 39241 ft | 435 kts | 255° |
| 2026-05-06 11:39 | 60.01785 | 21.59585 | 39440 ft | 436 kts | 255° |
| 2026-05-06 11:40 | 60.01035 | 21.53712 | 39632 ft | 437 kts | 255° |
| 2026-05-06 11:40 | 60.00281 | 21.47825 | 39834 ft | 438 kts | 255° |
| 2026-05-06 11:40 | 59.99515 | 21.41929 | 39995 ft | 439 kts | 254° |
| 2026-05-06 11:41 | 59.97479 | 21.30447 | 40047 ft | 439 kts | 249° |
| 2026-05-06 11:41 | 59.95230 | 21.19110 | 40038 ft | 439 kts | 248° |
| 2026-05-06 11:42 | 59.92955 | 21.07872 | 40042 ft | 439 kts | 248° |
| 2026-05-06 11:42 | 59.90682 | 20.96669 | 40034 ft | 425 kts | 248° |
| 2026-05-06 11:42 | 59.89591 | 20.91296 | 40038 ft | 411 kts | 248° |
| 2026-05-06 11:43 | 59.88534 | 20.86100 | 40036 ft | 397 kts | 248° |
| 2026-05-06 11:43 | 59.87510 | 20.81075 | 40037 ft | 383 kts | 248° |
| 2026-05-06 11:43 | 59.86527 | 20.76259 | 40032 ft | 370 kts | 248° |
| 2026-05-06 11:44 | 59.84660 | 20.67145 | 40032 ft | 341 kts | 248° |
| 2026-05-06 11:44 | 59.83780 | 20.62866 | 40028 ft | 327 kts | 248° |
| 2026-05-06 11:44 | 59.82937 | 20.58775 | 40021 ft | 312 kts | 248° |
| 2026-05-06 11:44 | 59.82145 | 20.54939 | 40022 ft | 296 kts | 248° |
| 2026-05-06 11:45 | 59.81378 | 20.51231 | 40007 ft | 288 kts | 248° |
| 2026-05-06 11:45 | 59.80616 | 20.47551 | 40067 ft | 287 kts | 248° |
| 2026-05-06 11:45 | 59.79864 | 20.43926 | 40275 ft | 280 kts | 248° |
| 2026-05-06 11:45 | 59.79128 | 20.40384 | 40428 ft | 275 kts | 248° |
| 2026-05-06 11:46 | 59.78397 | 20.36864 | 40353 ft | 278 kts | 248° |
| 2026-05-06 11:46 | 59.77650 | 20.33265 | 40169 ft | 285 kts | 248° |
| 2026-05-06 11:46 | 59.76889 | 20.29590 | 40070 ft | 289 kts | 248° |
| 2026-05-06 11:46 | 59.76126 | 20.25904 | 40185 ft | 286 kts | 248° |
| 2026-05-06 11:47 | 59.75382 | 20.22304 | 40404 ft | 279 kts | 248° |
| 2026-05-06 11:47 | 59.74663 | 20.18816 | 40494 ft | 276 kts | 248° |
| 2026-05-06 11:47 | 59.73932 | 20.15260 | 40363 ft | 281 kts | 248° |
| 2026-05-06 11:47 | 59.73188 | 20.11626 | 40183 ft | 288 kts | 248° |
| 2026-05-06 11:48 | 59.72435 | 20.07935 | 40146 ft | 290 kts | 248° |
| 2026-05-06 11:48 | 59.71683 | 20.04232 | 40306 ft | 285 kts | 248° |
| 2026-05-06 11:48 | 59.70958 | 20.00638 | 40514 ft | 278 kts | 248° |
| 2026-05-06 11:48 | 59.70246 | 19.97095 | 40562 ft | 277 kts | 248° |
| 2026-05-06 11:49 | 59.69538 | 19.93553 | 40396 ft | 283 kts | 248° |
| 2026-05-06 11:49 | 59.68807 | 19.89875 | 40212 ft | 291 kts | 249° |
| 2026-05-06 11:49 | 59.68069 | 19.86140 | 40213 ft | 291 kts | 249° |
| 2026-05-06 11:49 | 59.67341 | 19.82427 | 40414 ft | 284 kts | 249° |
| 2026-05-06 11:50 | 59.66637 | 19.78819 | 40601 ft | 278 kts | 249° |
| 2026-05-06 11:50 | 59.65947 | 19.75255 | 40600 ft | 279 kts | 249° |
| 2026-05-06 11:50 | 59.65249 | 19.71619 | 40415 ft | 286 kts | 249° |
| 2026-05-06 11:50 | 59.64541 | 19.67896 | 40257 ft | 292 kts | 249° |
| 2026-05-06 11:51 | 59.63831 | 19.64127 | 40323 ft | 290 kts | 249° |
| 2026-05-06 11:51 | 59.63139 | 19.60419 | 40552 ft | 283 kts | 249° |
| 2026-05-06 11:51 | 59.62472 | 19.56804 | 40700 ft | 278 kts | 250° |
| 2026-05-06 11:51 | 59.61812 | 19.53194 | 40635 ft | 281 kts | 250° |
| 2026-05-06 11:52 | 59.61148 | 19.49507 | 40427 ft | 289 kts | 250° |
| 2026-05-06 11:52 | 59.60484 | 19.45778 | 40308 ft | 294 kts | 250° |
| 2026-05-06 11:52 | 59.59817 | 19.41979 | 40419 ft | 290 kts | 250° |
| 2026-05-06 11:52 | 59.59172 | 19.38254 | 40644 ft | 283 kts | 250° |
| 2026-05-06 11:53 | 59.58547 | 19.34596 | 40766 ft | 279 kts | 251° |
| 2026-05-06 11:53 | 59.57933 | 19.30944 | 40653 ft | 283 kts | 251° |
| 2026-05-06 11:53 | 59.57311 | 19.27193 | 40454 ft | 291 kts | 251° |
| 2026-05-06 11:53 | 59.56686 | 19.23364 | 40376 ft | 294 kts | 251° |
| 2026-05-06 11:54 | 59.56056 | 19.19525 | 40177 ft | 301 kts | 250° |
| 2026-05-06 11:54 | 59.54997 | 19.15786 | 39555 ft | 323 kts | 234° |
| 2026-05-06 11:54 | 59.53436 | 19.12281 | 38906 ft | 351 kts | 229° |
| 2026-05-06 11:54 | 59.51784 | 19.08677 | 38896 ft | 357 kts | 233° |
| 2026-05-06 11:55 | 59.49029 | 19.00463 | 39056 ft | 363 kts | 243° |
| 2026-05-06 11:55 | 59.46853 | 18.91431 | 39225 ft | 372 kts | 246° |
| 2026-05-06 11:56 | 59.44800 | 18.81953 | 39394 ft | 380 kts | 247° |
| 2026-05-06 11:56 | 59.42684 | 18.72289 | 39570 ft | 389 kts | 246° |
| 2026-05-06 11:57 | 59.40478 | 18.62452 | 39750 ft | 397 kts | 246° |
| 2026-05-06 11:57 | 59.38217 | 18.52503 | 39923 ft | 406 kts | 246° |
| 2026-05-06 11:58 | 59.35881 | 18.42285 | 40018 ft | 417 kts | 246° |